sensor_id;sensor_type;location;lat;lon;timestamp;P1;durP1;ratioP1;P2;durP2;ratioP2
40675;SDS011;26359;48.750;9.314;2024-02-15T00:00:35;8.65;;;7.88;;
40675;SDS011;26359;48.750;9.314;2024-02-15T00:03:00;8.52;;;7.75;;
40675;SDS011;26359;48.750;9.314;2024-02-15T00:05:26;7.45;;;6.82;;
40675;SDS011;26359;48.750;9.314;2024-02-15T00:07:51;8.38;;;7.47;;
40675;SDS011;26359;48.750;9.314;2024-02-15T00:10:17;7.70;;;7.07;;
40675;SDS011;26359;48.750;9.314;2024-02-15T00:12:42;9.48;;;7.53;;
40675;SDS011;26359;48.750;9.314;2024-02-15T00:15:08;7.93;;;7.03;;
40675;SDS011;26359;48.750;9.314;2024-02-15T00:17:34;9.00;;;7.32;;
40675;SDS011;26359;48.750;9.314;2024-02-15T00:20:00;7.55;;;6.97;;
40675;SDS011;26359;48.750;9.314;2024-02-15T00:22:28;9.63;;;8.73;;
40675;SDS011;26359;48.750;9.314;2024-02-15T00:24:54;9.20;;;8.57;;
40675;SDS011;26359;48.750;9.314;2024-02-15T00:27:20;12.40;;;11.50;;
40675;SDS011;26359;48.750;9.314;2024-02-15T00:29:46;10.55;;;9.82;;
40675;SDS011;26359;48.750;9.314;2024-02-15T00:32:11;15.85;;;14.80;;
40675;SDS011;26359;48.750;9.314;2024-02-15T00:34:37;13.90;;;12.93;;
40675;SDS011;26359;48.750;9.314;2024-02-15T00:37:04;12.20;;;11.10;;
40675;SDS011;26359;48.750;9.314;2024-02-15T00:39:30;14.95;;;13.95;;
40675;SDS011;26359;48.750;9.314;2024-02-15T00:41:56;14.23;;;13.25;;
40675;SDS011;26359;48.750;9.314;2024-02-15T00:44:22;13.65;;;12.75;;
40675;SDS011;26359;48.750;9.314;2024-02-15T00:46:47;14.55;;;13.60;;
40675;SDS011;26359;48.750;9.314;2024-02-15T00:49:13;15.13;;;14.05;;
40675;SDS011;26359;48.750;9.314;2024-02-15T00:51:38;14.30;;;13.15;;
40675;SDS011;26359;48.750;9.314;2024-02-15T00:54:04;11.80;;;10.70;;
40675;SDS011;26359;48.750;9.314;2024-02-15T00:56:30;11.98;;;11.10;;
40675;SDS011;26359;48.750;9.314;2024-02-15T00:58:56;11.45;;;10.55;;
40675;SDS011;26359;48.750;9.314;2024-02-15T01:01:22;11.95;;;10.85;;
40675;SDS011;26359;48.750;9.314;2024-02-15T01:03:48;13.02;;;12.13;;
40675;SDS011;26359;48.750;9.314;2024-02-15T01:06:13;13.63;;;12.65;;
40675;SDS011;26359;48.750;9.314;2024-02-15T01:08:39;12.70;;;11.90;;
40675;SDS011;26359;48.750;9.314;2024-02-15T01:11:04;12.60;;;11.70;;
40675;SDS011;26359;48.750;9.314;2024-02-15T01:13:31;14.55;;;13.10;;
40675;SDS011;26359;48.750;9.314;2024-02-15T01:15:56;13.10;;;12.18;;
40675;SDS011;26359;48.750;9.314;2024-02-15T01:18:22;10.95;;;10.15;;
40675;SDS011;26359;48.750;9.314;2024-02-15T01:20:47;11.48;;;10.48;;
40675;SDS011;26359;48.750;9.314;2024-02-15T01:23:13;9.82;;;9.23;;
40675;SDS011;26359;48.750;9.314;2024-02-15T01:25:39;10.95;;;10.13;;
40675;SDS011;26359;48.750;9.314;2024-02-15T01:28:05;12.13;;;10.70;;
40675;SDS011;26359;48.750;9.314;2024-02-15T01:30:30;12.40;;;11.23;;
40675;SDS011;26359;48.750;9.314;2024-02-15T01:32:56;11.18;;;10.38;;
40675;SDS011;26359;48.750;9.314;2024-02-15T01:35:23;11.68;;;10.68;;
40675;SDS011;26359;48.750;9.314;2024-02-15T01:37:49;9.48;;;8.77;;
40675;SDS011;26359;48.750;9.314;2024-02-15T01:40:14;9.75;;;9.02;;
40675;SDS011;26359;48.750;9.314;2024-02-15T01:42:41;9.77;;;8.77;;
40675;SDS011;26359;48.750;9.314;2024-02-15T01:45:09;9.95;;;9.27;;
40675;SDS011;26359;48.750;9.314;2024-02-15T01:47:36;9.60;;;9.10;;
40675;SDS011;26359;48.750;9.314;2024-02-15T01:50:02;10.20;;;9.40;;
40675;SDS011;26359;48.750;9.314;2024-02-15T01:52:28;12.05;;;10.98;;
40675;SDS011;26359;48.750;9.314;2024-02-15T01:54:55;11.63;;;10.93;;
40675;SDS011;26359;48.750;9.314;2024-02-15T01:57:22;9.63;;;8.93;;
40675;SDS011;26359;48.750;9.314;2024-02-15T01:59:49;8.23;;;7.68;;
40675;SDS011;26359;48.750;9.314;2024-02-15T02:02:18;9.20;;;8.50;;
40675;SDS011;26359;48.750;9.314;2024-02-15T02:04:45;8.68;;;8.07;;
40675;SDS011;26359;48.750;9.314;2024-02-15T02:07:11;9.23;;;8.57;;
40675;SDS011;26359;48.750;9.314;2024-02-15T02:09:36;9.65;;;8.90;;
40675;SDS011;26359;48.750;9.314;2024-02-15T02:12:02;9.32;;;8.68;;
40675;SDS011;26359;48.750;9.314;2024-02-15T02:14:28;10.55;;;9.82;;
40675;SDS011;26359;48.750;9.314;2024-02-15T02:16:54;9.75;;;9.05;;
40675;SDS011;26359;48.750;9.314;2024-02-15T02:19:20;10.75;;;9.75;;
40675;SDS011;26359;48.750;9.314;2024-02-15T02:21:45;10.18;;;9.38;;
40675;SDS011;26359;48.750;9.314;2024-02-15T02:24:17;13.30;;;12.40;;
40675;SDS011;26359;48.750;9.314;2024-02-15T02:26:46;9.18;;;8.57;;
40675;SDS011;26359;48.750;9.314;2024-02-15T02:29:13;11.90;;;11.10;;
40675;SDS011;26359;48.750;9.314;2024-02-15T02:31:39;13.45;;;12.45;;
40675;SDS011;26359;48.750;9.314;2024-02-15T02:34:05;9.07;;;8.18;;
40675;SDS011;26359;48.750;9.314;2024-02-15T02:36:32;8.43;;;7.75;;
40675;SDS011;26359;48.750;9.314;2024-02-15T02:38:58;14.25;;;13.30;;
40675;SDS011;26359;48.750;9.314;2024-02-15T02:41:25;15.57;;;14.50;;
40675;SDS011;26359;48.750;9.314;2024-02-15T02:43:53;10.77;;;9.93;;
40675;SDS011;26359;48.750;9.314;2024-02-15T02:46:20;11.57;;;10.73;;
40675;SDS011;26359;48.750;9.314;2024-02-15T02:48:45;9.10;;;8.32;;
40675;SDS011;26359;48.750;9.314;2024-02-15T02:51:11;8.32;;;7.63;;
40675;SDS011;26359;48.750;9.314;2024-02-15T02:53:37;11.07;;;10.07;;
40675;SDS011;26359;48.750;9.314;2024-02-15T02:56:02;10.98;;;10.02;;
40675;SDS011;26359;48.750;9.314;2024-02-15T02:58:28;9.93;;;9.13;;
40675;SDS011;26359;48.750;9.314;2024-02-15T03:00:54;12.05;;;11.20;;
40675;SDS011;26359;48.750;9.314;2024-02-15T03:03:20;15.73;;;14.48;;
40675;SDS011;26359;48.750;9.314;2024-02-15T03:05:49;9.80;;;9.00;;
40675;SDS011;26359;48.750;9.314;2024-02-15T03:08:14;7.75;;;7.05;;
40675;SDS011;26359;48.750;9.314;2024-02-15T03:10:42;8.13;;;7.43;;
40675;SDS011;26359;48.750;9.314;2024-02-15T03:13:08;7.65;;;7.00;;
40675;SDS011;26359;48.750;9.314;2024-02-15T03:15:34;7.53;;;6.85;;
40675;SDS011;26359;48.750;9.314;2024-02-15T03:18:03;7.00;;;6.45;;
40675;SDS011;26359;48.750;9.314;2024-02-15T03:20:31;10.02;;;8.98;;
40675;SDS011;26359;48.750;9.314;2024-02-15T03:22:58;9.25;;;8.35;;
40675;SDS011;26359;48.750;9.314;2024-02-15T03:25:25;10.07;;;9.32;;
40675;SDS011;26359;48.750;9.314;2024-02-15T03:27:54;7.60;;;6.97;;
40675;SDS011;26359;48.750;9.314;2024-02-15T03:30:24;7.85;;;7.25;;
40675;SDS011;26359;48.750;9.314;2024-02-15T03:32:51;7.25;;;6.63;;
40675;SDS011;26359;48.750;9.314;2024-02-15T03:35:17;6.65;;;6.20;;
40675;SDS011;26359;48.750;9.314;2024-02-15T03:37:44;7.88;;;7.18;;
40675;SDS011;26359;48.750;9.314;2024-02-15T03:40:10;5.57;;;5.07;;
40675;SDS011;26359;48.750;9.314;2024-02-15T03:42:36;6.75;;;6.00;;
40675;SDS011;26359;48.750;9.314;2024-02-15T03:45:04;5.20;;;4.68;;
40675;SDS011;26359;48.750;9.314;2024-02-15T03:47:31;6.22;;;5.70;;
40675;SDS011;26359;48.750;9.314;2024-02-15T03:49:58;5.78;;;5.25;;
40675;SDS011;26359;48.750;9.314;2024-02-15T03:52:24;5.90;;;5.40;;
40675;SDS011;26359;48.750;9.314;2024-02-15T03:54:49;5.93;;;5.10;;
40675;SDS011;26359;48.750;9.314;2024-02-15T03:57:15;6.78;;;4.80;;
40675;SDS011;26359;48.750;9.314;2024-02-15T03:59:42;5.38;;;4.82;;
40675;SDS011;26359;48.750;9.314;2024-02-15T04:02:07;9.40;;;8.55;;
40675;SDS011;26359;48.750;9.314;2024-02-15T04:04:37;7.45;;;7.03;;
40675;SDS011;26359;48.750;9.314;2024-02-15T04:07:07;6.70;;;6.10;;
40675;SDS011;26359;48.750;9.314;2024-02-15T04:09:32;7.05;;;6.25;;
40675;SDS011;26359;48.750;9.314;2024-02-15T04:12:00;8.60;;;7.68;;
40675;SDS011;26359;48.750;9.314;2024-02-15T04:14:26;6.95;;;6.32;;
40675;SDS011;26359;48.750;9.314;2024-02-15T04:16:51;9.95;;;9.20;;
40675;SDS011;26359;48.750;9.314;2024-02-15T04:19:17;51.33;;;48.17;;
40675;SDS011;26359;48.750;9.314;2024-02-15T04:21:45;54.95;;;51.92;;
40675;SDS011;26359;48.750;9.314;2024-02-15T04:24:11;35.90;;;33.75;;
40675;SDS011;26359;48.750;9.314;2024-02-15T04:26:37;35.08;;;33.05;;
40675;SDS011;26359;48.750;9.314;2024-02-15T04:29:03;14.63;;;13.50;;
40675;SDS011;26359;48.750;9.314;2024-02-15T04:31:29;12.57;;;11.57;;
40675;SDS011;26359;48.750;9.314;2024-02-15T04:33:55;10.00;;;9.30;;
40675;SDS011;26359;48.750;9.314;2024-02-15T04:36:21;9.93;;;9.23;;
40675;SDS011;26359;48.750;9.314;2024-02-15T04:38:50;11.20;;;10.50;;
40675;SDS011;26359;48.750;9.314;2024-02-15T04:41:17;8.52;;;7.93;;
40675;SDS011;26359;48.750;9.314;2024-02-15T04:43:51;8.27;;;7.45;;
40675;SDS011;26359;48.750;9.314;2024-02-15T04:46:20;9.55;;;8.85;;
40675;SDS011;26359;48.750;9.314;2024-02-15T04:48:49;7.50;;;6.63;;
40675;SDS011;26359;48.750;9.314;2024-02-15T04:51:15;7.85;;;7.05;;
40675;SDS011;26359;48.750;9.314;2024-02-15T04:53:41;6.22;;;5.72;;
40675;SDS011;26359;48.750;9.314;2024-02-15T04:56:08;7.80;;;5.47;;
40675;SDS011;26359;48.750;9.314;2024-02-15T04:58:38;8.45;;;6.47;;
40675;SDS011;26359;48.750;9.314;2024-02-15T05:01:11;11.40;;;10.40;;
40675;SDS011;26359;48.750;9.314;2024-02-15T05:03:38;7.60;;;6.35;;
40675;SDS011;26359;48.750;9.314;2024-02-15T05:06:03;6.93;;;6.43;;
40675;SDS011;26359;48.750;9.314;2024-02-15T05:08:30;8.13;;;6.00;;
40675;SDS011;26359;48.750;9.314;2024-02-15T05:10:56;6.85;;;6.10;;
40675;SDS011;26359;48.750;9.314;2024-02-15T05:13:24;7.18;;;6.47;;
40675;SDS011;26359;48.750;9.314;2024-02-15T05:15:50;6.10;;;5.60;;
40675;SDS011;26359;48.750;9.314;2024-02-15T05:18:15;7.93;;;7.22;;
40675;SDS011;26359;48.750;9.314;2024-02-15T05:20:42;7.55;;;6.78;;
40675;SDS011;26359;48.750;9.314;2024-02-15T05:23:07;9.27;;;8.30;;
40675;SDS011;26359;48.750;9.314;2024-02-15T05:25:33;9.32;;;7.80;;
40675;SDS011;26359;48.750;9.314;2024-02-15T05:28:00;9.18;;;7.68;;
40675;SDS011;26359;48.750;9.314;2024-02-15T05:30:26;8.90;;;8.13;;
40675;SDS011;26359;48.750;9.314;2024-02-15T05:32:52;11.27;;;7.72;;
40675;SDS011;26359;48.750;9.314;2024-02-15T05:35:18;10.18;;;9.27;;
40675;SDS011;26359;48.750;9.314;2024-02-15T05:37:43;8.85;;;8.00;;
40675;SDS011;26359;48.750;9.314;2024-02-15T05:40:09;9.55;;;8.65;;
40675;SDS011;26359;48.750;9.314;2024-02-15T05:42:40;10.45;;;9.45;;
40675;SDS011;26359;48.750;9.314;2024-02-15T05:47:51;9.55;;;7.40;;
40675;SDS011;26359;48.750;9.314;2024-02-15T05:50:17;8.05;;;7.43;;
40675;SDS011;26359;48.750;9.314;2024-02-15T05:52:46;10.27;;;9.43;;
40675;SDS011;26359;48.750;9.314;2024-02-15T05:55:12;10.23;;;9.27;;
40675;SDS011;26359;48.750;9.314;2024-02-15T05:57:41;12.07;;;10.98;;
40675;SDS011;26359;48.750;9.314;2024-02-15T06:00:08;13.10;;;11.77;;
40675;SDS011;26359;48.750;9.314;2024-02-15T06:02:34;13.35;;;12.25;;
40675;SDS011;26359;48.750;9.314;2024-02-15T06:05:00;13.43;;;12.32;;
40675;SDS011;26359;48.750;9.314;2024-02-15T06:07:29;14.63;;;13.27;;
40675;SDS011;26359;48.750;9.314;2024-02-15T06:09:56;10.98;;;10.07;;
40675;SDS011;26359;48.750;9.314;2024-02-15T06:12:29;10.55;;;9.75;;
40675;SDS011;26359;48.750;9.314;2024-02-15T06:14:55;14.27;;;13.25;;
40675;SDS011;26359;48.750;9.314;2024-02-15T06:17:20;19.02;;;17.73;;
40675;SDS011;26359;48.750;9.314;2024-02-15T06:19:46;26.08;;;24.30;;
40675;SDS011;26359;48.750;9.314;2024-02-15T06:22:11;18.65;;;17.30;;
40675;SDS011;26359;48.750;9.314;2024-02-15T06:24:37;26.58;;;24.95;;
40675;SDS011;26359;48.750;9.314;2024-02-15T06:27:03;16.40;;;15.02;;
40675;SDS011;26359;48.750;9.314;2024-02-15T06:29:29;20.50;;;19.08;;
40675;SDS011;26359;48.750;9.314;2024-02-15T06:32:13;19.95;;;18.55;;
40675;SDS011;26359;48.750;9.314;2024-02-15T06:34:57;24.13;;;22.58;;
40675;SDS011;26359;48.750;9.314;2024-02-15T06:37:41;25.13;;;23.65;;
40675;SDS011;26359;48.750;9.314;2024-02-15T06:40:25;26.00;;;24.25;;
40675;SDS011;26359;48.750;9.314;2024-02-15T06:42:51;17.80;;;16.50;;
40675;SDS011;26359;48.750;9.314;2024-02-15T06:45:16;15.60;;;14.32;;
40675;SDS011;26359;48.750;9.314;2024-02-15T06:47:43;14.80;;;13.48;;
40675;SDS011;26359;48.750;9.314;2024-02-15T06:50:12;10.52;;;9.68;;
40675;SDS011;26359;48.750;9.314;2024-02-15T06:52:38;9.18;;;8.55;;
40675;SDS011;26359;48.750;9.314;2024-02-15T06:55:08;9.35;;;8.50;;
40675;SDS011;26359;48.750;9.314;2024-02-15T06:57:36;9.75;;;7.15;;
40675;SDS011;26359;48.750;9.314;2024-02-15T07:00:05;9.13;;;8.35;;
40675;SDS011;26359;48.750;9.314;2024-02-15T07:02:34;9.90;;;9.00;;
40675;SDS011;26359;48.750;9.314;2024-02-15T07:05:00;10.88;;;9.82;;
40675;SDS011;26359;48.750;9.314;2024-02-15T07:07:27;10.93;;;9.60;;
40675;SDS011;26359;48.750;9.314;2024-02-15T07:09:53;10.60;;;9.60;;
40675;SDS011;26359;48.750;9.314;2024-02-15T07:12:19;10.85;;;9.85;;
40675;SDS011;26359;48.750;9.314;2024-02-15T07:14:46;10.80;;;9.93;;
40675;SDS011;26359;48.750;9.314;2024-02-15T07:17:12;11.40;;;10.25;;
40675;SDS011;26359;48.750;9.314;2024-02-15T07:19:37;11.55;;;10.48;;
40675;SDS011;26359;48.750;9.314;2024-02-15T07:22:08;11.07;;;10.13;;
40675;SDS011;26359;48.750;9.314;2024-02-15T07:24:34;12.23;;;11.00;;
40675;SDS011;26359;48.750;9.314;2024-02-15T07:27:03;12.27;;;11.00;;
40675;SDS011;26359;48.750;9.314;2024-02-15T07:29:29;11.68;;;10.45;;
40675;SDS011;26359;48.750;9.314;2024-02-15T07:31:56;11.70;;;9.27;;
40675;SDS011;26359;48.750;9.314;2024-02-15T07:34:22;12.48;;;8.75;;
40675;SDS011;26359;48.750;9.314;2024-02-15T07:36:47;10.98;;;9.80;;
40675;SDS011;26359;48.750;9.314;2024-02-15T07:39:16;14.93;;;9.75;;
40675;SDS011;26359;48.750;9.314;2024-02-15T07:41:48;15.15;;;10.00;;
40675;SDS011;26359;48.750;9.314;2024-02-15T07:44:15;15.07;;;8.80;;
40675;SDS011;26359;48.750;9.314;2024-02-15T07:46:42;11.32;;;8.07;;
40675;SDS011;26359;48.750;9.314;2024-02-15T07:49:08;10.50;;;8.68;;
40675;SDS011;26359;48.750;9.314;2024-02-15T07:51:33;9.88;;;8.13;;
40675;SDS011;26359;48.750;9.314;2024-02-15T07:53:59;10.85;;;9.02;;
40675;SDS011;26359;48.750;9.314;2024-02-15T07:56:26;9.45;;;8.00;;
40675;SDS011;26359;48.750;9.314;2024-02-15T07:58:52;12.65;;;9.23;;
40675;SDS011;26359;48.750;9.314;2024-02-15T08:01:18;8.85;;;7.97;;
40675;SDS011;26359;48.750;9.314;2024-02-15T08:03:46;10.20;;;7.50;;
40675;SDS011;26359;48.750;9.314;2024-02-15T08:06:13;8.60;;;7.70;;
40675;SDS011;26359;48.750;9.314;2024-02-15T08:08:40;9.60;;;8.65;;
40675;SDS011;26359;48.750;9.314;2024-02-15T08:11:09;11.32;;;8.52;;
40675;SDS011;26359;48.750;9.314;2024-02-15T08:13:40;8.75;;;7.63;;
40675;SDS011;26359;48.750;9.314;2024-02-15T08:16:07;9.48;;;7.63;;
40675;SDS011;26359;48.750;9.314;2024-02-15T08:18:33;10.00;;;9.10;;
40675;SDS011;26359;48.750;9.314;2024-02-15T08:21:00;11.30;;;9.60;;
40675;SDS011;26359;48.750;9.314;2024-02-15T08:23:26;9.00;;;8.13;;
40675;SDS011;26359;48.750;9.314;2024-02-15T08:25:52;9.80;;;8.85;;
40675;SDS011;26359;48.750;9.314;2024-02-15T08:28:18;11.90;;;10.25;;
40675;SDS011;26359;48.750;9.314;2024-02-15T08:30:45;13.40;;;11.98;;
40675;SDS011;26359;48.750;9.314;2024-02-15T08:33:11;12.20;;;11.02;;
40675;SDS011;26359;48.750;9.314;2024-02-15T08:35:37;13.40;;;11.70;;
40675;SDS011;26359;48.750;9.314;2024-02-15T08:38:05;13.07;;;11.90;;
40675;SDS011;26359;48.750;9.314;2024-02-15T08:40:31;10.20;;;9.30;;
40675;SDS011;26359;48.750;9.314;2024-02-15T08:42:56;11.40;;;10.43;;
40675;SDS011;26359;48.750;9.314;2024-02-15T08:45:22;12.93;;;11.38;;
40675;SDS011;26359;48.750;9.314;2024-02-15T08:47:48;12.07;;;10.82;;
40675;SDS011;26359;48.750;9.314;2024-02-15T08:50:17;10.32;;;9.43;;
40675;SDS011;26359;48.750;9.314;2024-02-15T08:52:44;8.23;;;7.45;;
40675;SDS011;26359;48.750;9.314;2024-02-15T08:55:10;8.48;;;7.30;;
40675;SDS011;26359;48.750;9.314;2024-02-15T08:57:39;25.27;;;23.67;;
40675;SDS011;26359;48.750;9.314;2024-02-15T09:00:06;26.48;;;24.92;;
40675;SDS011;26359;48.750;9.314;2024-02-15T09:02:38;31.05;;;29.30;;
40675;SDS011;26359;48.750;9.314;2024-02-15T09:05:05;36.22;;;33.83;;
40675;SDS011;26359;48.750;9.314;2024-02-15T09:07:31;34.50;;;32.28;;
40675;SDS011;26359;48.750;9.314;2024-02-15T09:09:57;26.30;;;24.45;;
40675;SDS011;26359;48.750;9.314;2024-02-15T09:12:22;22.60;;;20.90;;
40675;SDS011;26359;48.750;9.314;2024-02-15T09:14:47;9.38;;;8.02;;
40675;SDS011;26359;48.750;9.314;2024-02-15T09:17:13;7.20;;;6.50;;
40675;SDS011;26359;48.750;9.314;2024-02-15T09:19:39;8.43;;;7.63;;
40675;SDS011;26359;48.750;9.314;2024-02-15T09:22:04;8.80;;;8.00;;
40675;SDS011;26359;48.750;9.314;2024-02-15T09:24:31;10.73;;;8.10;;
40675;SDS011;26359;48.750;9.314;2024-02-15T09:26:58;8.38;;;7.57;;
40675;SDS011;26359;48.750;9.314;2024-02-15T09:29:28;8.63;;;7.78;;
40675;SDS011;26359;48.750;9.314;2024-02-15T09:31:59;9.88;;;9.10;;
40675;SDS011;26359;48.750;9.314;2024-02-15T09:34:28;11.40;;;10.23;;
40675;SDS011;26359;48.750;9.314;2024-02-15T09:36:53;12.70;;;11.60;;
40675;SDS011;26359;48.750;9.314;2024-02-15T09:39:20;28.23;;;26.20;;
40675;SDS011;26359;48.750;9.314;2024-02-15T09:41:46;14.88;;;13.48;;
40675;SDS011;26359;48.750;9.314;2024-02-15T09:44:15;22.10;;;20.73;;
40675;SDS011;26359;48.750;9.314;2024-02-15T09:46:42;14.35;;;13.25;;
40675;SDS011;26359;48.750;9.314;2024-02-15T09:49:11;17.42;;;15.98;;
40675;SDS011;26359;48.750;9.314;2024-02-15T09:51:38;25.70;;;24.10;;
40675;SDS011;26359;48.750;9.314;2024-02-15T09:54:05;21.42;;;19.80;;
40675;SDS011;26359;48.750;9.314;2024-02-15T09:56:34;20.85;;;19.40;;
40675;SDS011;26359;48.750;9.314;2024-02-15T09:59:00;22.63;;;21.23;;
40675;SDS011;26359;48.750;9.314;2024-02-15T10:01:27;18.90;;;17.48;;
40675;SDS011;26359;48.750;9.314;2024-02-15T10:03:56;16.42;;;15.27;;
40675;SDS011;26359;48.750;9.314;2024-02-15T10:06:24;15.98;;;14.77;;
40675;SDS011;26359;48.750;9.314;2024-02-15T10:08:50;17.90;;;16.63;;
40675;SDS011;26359;48.750;9.314;2024-02-15T10:11:15;13.48;;;12.52;;
40675;SDS011;26359;48.750;9.314;2024-02-15T10:13:41;8.07;;;7.35;;
40675;SDS011;26359;48.750;9.314;2024-02-15T10:18:41;9.73;;;8.93;;
40675;SDS011;26359;48.750;9.314;2024-02-15T10:21:07;9.38;;;8.63;;
40675;SDS011;26359;48.750;9.314;2024-02-15T10:23:32;10.05;;;7.85;;
40675;SDS011;26359;48.750;9.314;2024-02-15T10:25:58;9.80;;;9.00;;
40675;SDS011;26359;48.750;9.314;2024-02-15T10:28:23;12.77;;;11.90;;
40675;SDS011;26359;48.750;9.314;2024-02-15T10:30:49;13.88;;;12.95;;
40675;SDS011;26359;48.750;9.314;2024-02-15T10:33:27;12.10;;;10.88;;
40675;SDS011;26359;48.750;9.314;2024-02-15T10:36:06;10.18;;;8.05;;
40675;SDS011;26359;48.750;9.314;2024-02-15T10:38:33;8.18;;;6.72;;
40675;SDS011;26359;48.750;9.314;2024-02-15T10:41:05;7.20;;;6.70;;
40675;SDS011;26359;48.750;9.314;2024-02-15T10:43:33;10.25;;;9.25;;
40675;SDS011;26359;48.750;9.314;2024-02-15T10:45:59;7.88;;;6.32;;
40675;SDS011;26359;48.750;9.314;2024-02-15T10:48:26;9.10;;;8.40;;
40675;SDS011;26359;48.750;9.314;2024-02-15T10:50:53;10.98;;;10.00;;
40675;SDS011;26359;48.750;9.314;2024-02-15T10:53:27;7.80;;;7.15;;
40675;SDS011;26359;48.750;9.314;2024-02-15T10:58:40;8.55;;;7.57;;
40675;SDS011;26359;48.750;9.314;2024-02-15T11:01:12;9.63;;;8.73;;
40675;SDS011;26359;48.750;9.314;2024-02-15T11:03:45;18.48;;;17.23;;
40675;SDS011;26359;48.750;9.314;2024-02-15T11:06:21;15.98;;;14.98;;
40675;SDS011;26359;48.750;9.314;2024-02-15T11:08:49;13.18;;;11.93;;
40675;SDS011;26359;48.750;9.314;2024-02-15T11:11:15;12.77;;;11.88;;
40675;SDS011;26359;48.750;9.314;2024-02-15T11:13:41;14.13;;;13.05;;
40675;SDS011;26359;48.750;9.314;2024-02-15T11:16:09;11.13;;;10.23;;
40675;SDS011;26359;48.750;9.314;2024-02-15T11:18:41;9.68;;;7.57;;
40675;SDS011;26359;48.750;9.314;2024-02-15T11:21:13;7.72;;;7.13;;
40675;SDS011;26359;48.750;9.314;2024-02-15T11:23:42;8.88;;;7.95;;
40675;SDS011;26359;48.750;9.314;2024-02-15T11:26:10;10.23;;;9.43;;
40675;SDS011;26359;48.750;9.314;2024-02-15T11:28:54;8.40;;;7.68;;
40675;SDS011;26359;48.750;9.314;2024-02-15T11:34:53;9.10;;;8.23;;
40675;SDS011;26359;48.750;9.314;2024-02-15T11:40:22;7.82;;;7.22;;
40675;SDS011;26359;48.750;9.314;2024-02-15T11:42:49;8.18;;;7.03;;
40675;SDS011;26359;48.750;9.314;2024-02-15T11:45:19;5.95;;;5.55;;
40675;SDS011;26359;48.750;9.314;2024-02-15T11:47:49;6.40;;;5.80;;
40675;SDS011;26359;48.750;9.314;2024-02-15T11:50:19;6.70;;;6.07;;
40675;SDS011;26359;48.750;9.314;2024-02-15T11:52:50;6.78;;;6.18;;
40675;SDS011;26359;48.750;9.314;2024-02-15T11:55:19;6.78;;;6.28;;
40675;SDS011;26359;48.750;9.314;2024-02-15T11:57:57;7.72;;;6.32;;
40675;SDS011;26359;48.750;9.314;2024-02-15T12:00:49;5.40;;;4.90;;
40675;SDS011;26359;48.750;9.314;2024-02-15T12:03:33;5.28;;;4.65;;
40675;SDS011;26359;48.750;9.314;2024-02-15T12:06:17;5.60;;;5.10;;
40675;SDS011;26359;48.750;9.314;2024-02-15T12:09:02;5.03;;;4.57;;
40675;SDS011;26359;48.750;9.314;2024-02-15T12:11:46;6.00;;;5.38;;
40675;SDS011;26359;48.750;9.314;2024-02-15T12:14:30;5.35;;;4.88;;
40675;SDS011;26359;48.750;9.314;2024-02-15T12:17:14;5.75;;;5.25;;
40675;SDS011;26359;48.750;9.314;2024-02-15T12:20:02;5.43;;;5.03;;
40675;SDS011;26359;48.750;9.314;2024-02-15T12:22:40;7.95;;;7.43;;
40675;SDS011;26359;48.750;9.314;2024-02-15T12:25:13;4.85;;;4.47;;
40675;SDS011;26359;48.750;9.314;2024-02-15T12:27:40;9.43;;;5.55;;
40675;SDS011;26359;48.750;9.314;2024-02-15T12:30:08;5.72;;;5.20;;
40675;SDS011;26359;48.750;9.314;2024-02-15T12:32:39;7.72;;;6.32;;
40675;SDS011;26359;48.750;9.314;2024-02-15T12:35:11;6.70;;;5.95;;
40675;SDS011;26359;48.750;9.314;2024-02-15T12:38:09;7.82;;;7.22;;
40675;SDS011;26359;48.750;9.314;2024-02-15T12:40:37;7.50;;;6.68;;
40675;SDS011;26359;48.750;9.314;2024-02-15T12:43:05;8.35;;;7.65;;
40675;SDS011;26359;48.750;9.314;2024-02-15T12:45:33;8.65;;;7.95;;
40675;SDS011;26359;48.750;9.314;2024-02-15T12:48:02;7.22;;;6.53;;
40675;SDS011;26359;48.750;9.314;2024-02-15T12:50:29;7.10;;;6.65;;
40675;SDS011;26359;48.750;9.314;2024-02-15T12:52:56;6.35;;;5.05;;
40675;SDS011;26359;48.750;9.314;2024-02-15T12:55:27;6.45;;;6.05;;
40675;SDS011;26359;48.750;9.314;2024-02-15T12:57:55;5.47;;;5.07;;
40675;SDS011;26359;48.750;9.314;2024-02-15T13:00:22;5.78;;;5.28;;
40675;SDS011;26359;48.750;9.314;2024-02-15T13:02:53;5.85;;;5.22;;
40675;SDS011;26359;48.750;9.314;2024-02-15T13:05:21;5.97;;;5.47;;
40675;SDS011;26359;48.750;9.314;2024-02-15T13:07:48;7.03;;;5.75;;
40675;SDS011;26359;48.750;9.314;2024-02-15T13:10:14;6.07;;;5.68;;
40675;SDS011;26359;48.750;9.314;2024-02-15T13:12:41;6.35;;;5.63;;
40675;SDS011;26359;48.750;9.314;2024-02-15T13:15:08;5.93;;;5.53;;
40675;SDS011;26359;48.750;9.314;2024-02-15T13:17:37;8.52;;;5.38;;
40675;SDS011;26359;48.750;9.314;2024-02-15T13:20:03;5.78;;;5.15;;
40675;SDS011;26359;48.750;9.314;2024-02-15T13:22:32;4.82;;;4.43;;
40675;SDS011;26359;48.750;9.314;2024-02-15T13:24:59;5.57;;;5.18;;
40675;SDS011;26359;48.750;9.314;2024-02-15T13:27:25;6.60;;;5.97;;
40675;SDS011;26359;48.750;9.314;2024-02-15T13:29:51;8.25;;;7.60;;
40675;SDS011;26359;48.750;9.314;2024-02-15T13:32:18;7.50;;;6.90;;
40675;SDS011;26359;48.750;9.314;2024-02-15T13:34:46;8.65;;;8.00;;
40675;SDS011;26359;48.750;9.314;2024-02-15T13:37:17;10.95;;;8.90;;
40675;SDS011;26359;48.750;9.314;2024-02-15T13:39:48;11.05;;;10.23;;
40675;SDS011;26359;48.750;9.314;2024-02-15T13:42:16;16.05;;;14.95;;
40675;SDS011;26359;48.750;9.314;2024-02-15T13:44:42;14.60;;;13.50;;
40675;SDS011;26359;48.750;9.314;2024-02-15T13:47:09;10.60;;;9.82;;
40675;SDS011;26359;48.750;9.314;2024-02-15T13:49:36;11.43;;;10.73;;
40675;SDS011;26359;48.750;9.314;2024-02-15T13:52:03;12.70;;;11.90;;
40675;SDS011;26359;48.750;9.314;2024-02-15T13:54:31;14.13;;;13.02;;
40675;SDS011;26359;48.750;9.314;2024-02-15T13:56:57;14.43;;;13.27;;
40675;SDS011;26359;48.750;9.314;2024-02-15T13:59:23;14.57;;;13.65;;
40675;SDS011;26359;48.750;9.314;2024-02-15T14:01:51;15.70;;;14.65;;
40675;SDS011;26359;48.750;9.314;2024-02-15T14:04:18;14.02;;;13.15;;
40675;SDS011;26359;48.750;9.314;2024-02-15T14:06:44;11.50;;;10.50;;
40675;SDS011;26359;48.750;9.314;2024-02-15T14:09:12;17.80;;;16.52;;
40675;SDS011;26359;48.750;9.314;2024-02-15T14:11:38;12.40;;;11.35;;
40675;SDS011;26359;48.750;9.314;2024-02-15T14:14:04;15.60;;;14.48;;
40675;SDS011;26359;48.750;9.314;2024-02-15T14:16:33;13.68;;;12.73;;
40675;SDS011;26359;48.750;9.314;2024-02-15T14:18:58;14.50;;;13.60;;
40675;SDS011;26359;48.750;9.314;2024-02-15T14:21:24;13.20;;;12.05;;
40675;SDS011;26359;48.750;9.314;2024-02-15T14:23:50;13.73;;;12.55;;
40675;SDS011;26359;48.750;9.314;2024-02-15T14:26:16;12.73;;;11.73;;
40675;SDS011;26359;48.750;9.314;2024-02-15T14:28:42;12.90;;;12.00;;
40675;SDS011;26359;48.750;9.314;2024-02-15T14:31:09;12.18;;;11.18;;
40675;SDS011;26359;48.750;9.314;2024-02-15T14:33:54;14.05;;;12.80;;
40675;SDS011;26359;48.750;9.314;2024-02-15T14:36:20;13.30;;;12.40;;
40675;SDS011;26359;48.750;9.314;2024-02-15T14:38:45;12.60;;;11.50;;
40675;SDS011;26359;48.750;9.314;2024-02-15T14:41:11;10.93;;;10.02;;
40675;SDS011;26359;48.750;9.314;2024-02-15T14:43:37;10.45;;;9.57;;
40675;SDS011;26359;48.750;9.314;2024-02-15T14:46:03;9.20;;;8.48;;
40675;SDS011;26359;48.750;9.314;2024-02-15T14:48:30;9.35;;;8.65;;
40675;SDS011;26359;48.750;9.314;2024-02-15T14:50:56;9.27;;;8.38;;
40675;SDS011;26359;48.750;9.314;2024-02-15T14:53:22;9.70;;;8.90;;